Terminal Aerodrome Forecast
Issued by NWS

Home | Current Version | Previous Version | Text Only | Print | Product List | Glossary On
Versions: 1 2 3 4 5 6 7 8 9 10 11 12 13 14 15 16 17 18
000
FTUS41 KBGM 012300
TAFITH
TAF
KITH 012334Z 0200/0224 VRB05KT P6SM SCT045
     FM020600 11004KT 4SM BR SCT035
      TEMPO 0209/0213 2SM BR BKN015
     FM021400 15005KT P6SM SCT040=

USA.gov is the U.S. government's official web portal to all federal, state and local government web resources and services.